Time;durP1;ratioP1;P1;durP2;ratioP2;P2;SDS_P1;SDS_P2;PMS_P1;PMS_P2;Temp;Humidity;BMP_temperature;BMP_pressure;BME280_temperature;BME280_humidity;BME280_pressure;Samples;Min_cycle;Max_cycle;Signal;HPM_P1;HPM_P2
2023/02/06 00:00:44;;;;;;;8.10;7.03;;;-0.70;1.00;;;;;;5046417;28;20450;-55
2023/02/06 00:03:10;;;;;;;9.17;7.17;;;-0.70;1.00;;;;;;5045914;28;20962;-54
2023/02/06 00:05:35;;;;;;;10.23;6.93;;;-0.80;1.00;;;;;;5046535;28;20460;-55
2023/02/06 00:08:01;;;;;;;9.80;7.43;;;-0.70;1.00;;;;;;5045603;28;20217;-53
2023/02/06 00:10:27;;;;;;;10.87;7.33;;;-0.90;1.00;;;;;;5046939;28;20299;-52
2023/02/06 00:12:53;;;;;;;11.03;9.17;;;-0.80;1.00;;;;;;5046221;28;20280;-55
2023/02/06 00:15:19;;;;;;;12.80;7.60;;;-0.80;1.00;;;;;;5048294;28;20990;-53
2023/02/06 00:17:44;;;;;;;9.37;6.50;;;-0.90;1.00;;;;;;5049750;28;20185;-54
2023/02/06 00:20:11;;;;;;;16.30;8.83;;;-0.80;1.00;;;;;;5047242;28;20266;-54
2023/02/06 00:22:37;;;;;;;11.40;7.10;;;-0.80;1.00;;;;;;5054307;28;20315;-54
2023/02/06 00:25:03;;;;;;;9.93;7.33;;;-0.90;1.00;;;;;;5045201;28;20521;-56
2023/02/06 00:27:28;;;;;;;10.30;7.57;;;-0.90;1.00;;;;;;5045315;28;20800;-53
2023/02/06 00:29:54;;;;;;;15.57;7.53;;;-0.90;1.00;;;;;;5052319;28;20458;-53
2023/02/06 00:32:19;;;;;;;10.20;7.60;;;-0.90;1.00;;;;;;5043608;28;20693;-55
2023/02/06 00:34:45;;;;;;;9.87;7.10;;;-0.90;1.00;;;;;;5040608;28;20201;-53
2023/02/06 00:37:11;;;;;;;11.30;8.30;;;-1.00;1.00;;;;;;5034893;28;20309;-53
2023/02/06 00:39:36;;;;;;;15.70;9.77;;;-1.00;1.00;;;;;;5034658;28;20208;-54
2023/02/06 00:42:02;;;;;;;12.63;8.83;;;-1.00;1.00;;;;;;5042221;28;20559;-56
2023/02/06 00:44:28;;;;;;;11.50;8.73;;;-1.10;1.00;;;;;;5051163;28;20177;-53
2023/02/06 00:46:54;;;;;;;9.50;7.20;;;-1.10;1.00;;;;;;5046897;28;20189;-53
2023/02/06 00:49:20;;;;;;;10.03;8.07;;;-1.10;1.00;;;;;;5043280;28;20189;-54
2023/02/06 00:51:45;;;;;;;11.53;7.30;;;-1.10;1.00;;;;;;5038661;28;20909;-53
2023/02/06 00:54:11;;;;;;;13.00;8.30;;;-1.10;1.00;;;;;;5047840;28;20231;-54
2023/02/06 00:56:36;;;;;;;10.20;7.90;;;-1.20;1.00;;;;;;5046680;28;20216;-54
2023/02/06 00:59:02;;;;;;;9.20;7.10;;;-1.20;1.00;;;;;;5043461;28;20701;-53
2023/02/06 01:01:28;;;;;;;9.57;6.93;;;-1.30;1.00;;;;;;5045808;28;20297;-56
2023/02/06 01:03:54;;;;;;;11.50;7.03;;;-1.20;1.00;;;;;;5045126;28;20184;-54
2023/02/06 01:06:20;;;;;;;9.40;6.97;;;-0.80;1.00;;;;;;5056895;28;20194;-54
2023/02/06 01:08:46;;;;;;;12.53;7.70;;;-1.30;1.00;;;;;;5052897;28;20540;-53
2023/02/06 01:11:18;;;;;;;10.90;7.50;;;-1.30;1.00;;;;;;5052784;28;20446;-53
2023/02/06 01:13:44;;;;;;;10.50;6.57;;;-1.20;1.00;;;;;;5046269;28;20451;-54
2023/02/06 01:16:12;;;;;;;11.07;7.40;;;-1.20;1.00;;;;;;5048990;28;20470;-52
2023/02/06 01:18:38;;;;;;;11.97;6.70;;;-1.30;1.00;;;;;;5056040;28;20426;-53
2023/02/06 01:21:16;;;;;;;15.23;7.93;;;-1.30;1.00;;;;;;5052555;28;20577;-54
2023/02/06 01:23:43;;;;;;;11.90;6.90;;;-1.30;1.00;;;;;;5044629;28;20418;-55
2023/02/06 01:26:11;;;;;;;9.57;7.03;;;-1.30;1.00;;;;;;5051597;28;20508;-56
2023/02/06 01:28:39;;;;;;;11.40;6.63;;;-1.30;1.00;;;;;;5048958;28;20912;-53
2023/02/06 01:31:16;;;;;;;10.10;7.10;;;-1.30;1.00;;;;;;5049230;28;20438;-53
2023/02/06 01:33:43;;;;;;;12.67;7.20;;;-1.20;1.00;;;;;;5049918;28;20925;-54
2023/02/06 01:36:10;;;;;;;8.60;6.90;;;-1.30;1.00;;;;;;5050181;28;20434;-54
2023/02/06 01:38:36;;;;;;;11.33;6.77;;;-1.20;1.00;;;;;;5066101;28;20472;-56
2023/02/06 01:41:02;;;;;;;12.13;7.00;;;-0.10;1.00;;;;;;5071468;28;20800;-52
2023/02/06 01:43:32;;;;;;;8.27;5.80;;;-1.30;1.00;;;;;;5052396;28;20205;-54
2023/02/06 01:45:58;;;;;;;7.63;6.50;;;-1.30;1.00;;;;;;5048193;28;20463;-54
2023/02/06 01:48:52;;;;;;;9.83;6.40;;;-1.30;1.00;;;;;;5046908;28;20443;-53
2023/02/06 01:51:21;;;;;;;8.40;5.90;;;-1.30;1.00;;;;;;5049730;28;20500;-53
2023/02/06 01:53:50;;;;;;;8.60;6.20;;;-1.30;1.00;;;;;;5058596;28;20480;-51
2023/02/06 01:56:20;;;;;;;8.97;6.17;;;-1.30;1.00;;;;;;5049267;28;20530;-53
2023/02/06 01:58:53;;;;;;;10.70;6.90;;;-1.30;1.00;;;;;;5047490;28;20551;-54
2023/02/06 02:01:20;;;;;;;9.83;6.07;;;-1.30;1.00;;;;;;5045454;28;20445;-53
2023/02/06 02:03:49;;;;;;;10.37;6.77;;;-1.20;1.00;;;;;;5052623;28;20444;-53
2023/02/06 02:06:17;;;;;;;9.93;6.63;;;-1.20;1.00;;;;;;5047784;28;20533;-52
2023/02/06 02:08:45;;;;;;;9.53;6.80;;;-1.20;1.00;;;;;;5049102;28;20482;-53
2023/02/06 02:11:20;;;;;;;8.20;5.73;;;-1.20;1.00;;;;;;5050109;28;20459;-53
2023/02/06 02:13:46;;;;;;;8.43;6.17;;;-1.10;1.00;;;;;;5049922;28;21834;-54
2023/02/06 02:16:18;;;;;;;11.10;5.70;;;-1.10;1.00;;;;;;5048931;28;20443;-52
2023/02/06 02:18:51;;;;;;;10.80;6.50;;;-1.10;1.00;;;;;;5046319;28;20799;-52
2023/02/06 02:21:32;;;;;;;12.40;7.10;;;-0.50;1.00;;;;;;5048439;28;20454;-53
2023/02/06 02:23:57;;;;;;;8.90;6.30;;;-1.20;1.00;;;;;;5038024;28;20446;-53
2023/02/06 02:26:47;;;;;;;8.80;6.10;;;-1.30;1.00;;;;;;5043094;28;20522;-52
2023/02/06 02:29:28;;;;;;;9.83;6.10;;;-1.20;1.00;;;;;;5044004;28;20189;-54
2023/02/06 02:32:22;;;;;;;10.03;6.50;;;-1.20;1.00;;;;;;5049567;28;20444;-54
2023/02/06 02:35:19;;;;;;;9.00;6.10;;;-1.20;1.00;;;;;;5050916;28;20479;-53
2023/02/06 02:38:11;;;;;;;9.10;5.00;;;-1.10;1.00;;;;;;5042919;28;20440;-52
2023/02/06 02:40:42;;;;;;;7.57;5.77;;;-1.20;1.00;;;;;;5037345;28;20843;-53
2023/02/06 02:43:12;;;;;;;11.60;6.67;;;-1.20;1.00;;;;;;5046543;28;20892;-55
2023/02/06 02:45:56;;;;;;;6.63;5.40;;;-1.30;1.00;;;;;;5057765;28;20873;-54
2023/02/06 02:48:39;;;;;;;7.70;5.63;;;-1.40;1.00;;;;;;5048641;28;20435;-52
2023/02/06 02:51:05;;;;;;;9.57;6.67;;;-1.40;1.00;;;;;;5050586;28;20531;-54
2023/02/06 02:53:31;;;;;;;10.80;5.80;;;-1.40;1.00;;;;;;5049066;28;20497;-52
2023/02/06 02:55:58;;;;;;;7.77;5.67;;;-1.40;1.00;;;;;;5049042;28;20459;-52
2023/02/06 02:58:32;;;;;;;10.77;7.10;;;-1.40;1.00;;;;;;5049246;28;20577;-53
2023/02/06 03:01:03;;;;;;;8.53;5.77;;;-1.40;1.00;;;;;;5043861;28;20486;-53
2023/02/06 03:03:32;;;;;;;8.53;5.10;;;-1.40;1.00;;;;;;5048647;28;20463;-53
2023/02/06 03:06:06;;;;;;;9.97;5.77;;;-1.40;1.00;;;;;;5045801;28;20498;-53
2023/02/06 03:08:58;;;;;;;11.37;6.20;;;-1.40;1.00;;;;;;5045495;28;20453;-53
2023/02/06 03:11:24;;;;;;;8.33;5.43;;;-1.40;1.00;;;;;;5040880;28;20545;-55
2023/02/06 03:13:54;;;;;;;7.33;6.10;;;-1.40;1.00;;;;;;5041630;28;20443;-54
2023/02/06 03:16:25;;;;;;;8.50;5.93;;;-1.40;1.00;;;;;;5042840;28;20453;-53
2023/02/06 03:19:08;;;;;;;10.13;5.90;;;-1.50;1.00;;;;;;5045650;28;20450;-52
2023/02/06 03:21:35;;;;;;;16.83;5.87;;;-1.50;1.00;;;;;;5043151;28;20971;-53
2023/02/06 03:24:09;;;;;;;9.57;5.87;;;-1.40;1.00;;;;;;5049871;28;20560;-53
2023/02/06 03:26:36;;;;;;;8.00;6.10;;;-1.40;1.00;;;;;;5050334;28;20957;-52
2023/02/06 03:29:05;;;;;;;8.87;6.03;;;-1.40;1.00;;;;;;5042061;28;20434;-54
2023/02/06 03:31:39;;;;;;;9.60;6.53;;;-1.30;1.00;;;;;;5046094;28;20455;-53
2023/02/06 03:34:16;;;;;;;8.57;5.97;;;-1.30;1.00;;;;;;5047591;28;20443;-55
2023/02/06 03:36:41;;;;;;;9.30;6.83;;;-1.40;1.00;;;;;;5046147;28;21057;-52
2023/02/06 03:39:07;;;;;;;10.03;7.23;;;-1.30;1.00;;;;;;5050550;28;20524;-54
2023/02/06 03:41:37;;;;;;;9.53;6.63;;;-1.40;1.00;;;;;;5042876;28;20223;-54
2023/02/06 03:44:07;;;;;;;11.10;5.90;;;-1.40;1.00;;;;;;5045533;28;20181;-54
2023/02/06 03:46:35;;;;;;;10.13;6.23;;;-1.50;1.00;;;;;;5044641;28;20481;-55
2023/02/06 03:49:06;;;;;;;13.37;6.47;;;-1.40;1.00;;;;;;5048700;28;20488;-54
2023/02/06 03:51:49;;;;;;;10.07;6.60;;;-1.50;1.00;;;;;;5040440;28;20947;-55
2023/02/06 03:54:19;;;;;;;8.30;6.03;;;-1.40;1.00;;;;;;5045595;28;20470;-51
2023/02/06 03:56:55;;;;;;;8.03;6.37;;;-1.40;1.00;;;;;;5046875;28;20439;-54
2023/02/06 03:59:21;;;;;;;11.50;5.67;;;-1.40;1.00;;;;;;5046027;28;20447;-54
2023/02/06 04:01:54;;;;;;;7.63;5.57;;;-1.50;1.00;;;;;;5042076;28;21056;-52
2023/02/06 04:04:27;;;;;;;8.80;6.30;;;-1.50;1.00;;;;;;5046260;28;20523;-53
2023/02/06 04:07:12;;;;;;;10.37;6.40;;;-1.40;1.00;;;;;;5048038;28;20575;-52
2023/02/06 04:09:40;;;;;;;12.03;7.90;;;-1.40;1.00;;;;;;5047380;28;20496;-54
2023/02/06 04:12:07;;;;;;;9.10;6.90;;;-1.40;1.00;;;;;;5043748;28;20975;-54
2023/02/06 04:14:35;;;;;;;11.90;7.07;;;-1.40;1.00;;;;;;5043998;28;20451;-52
2023/02/06 04:17:02;;;;;;;9.20;6.90;;;-1.30;1.00;;;;;;5034613;28;20830;-52
2023/02/06 04:19:27;;;;;;;12.80;8.33;;;-1.30;1.00;;;;;;5044939;28;20418;-53
2023/02/06 04:21:53;;;;;;;12.03;7.17;;;-1.40;1.00;;;;;;5056028;28;21038;-54
2023/02/06 04:24:18;;;;;;;9.87;6.83;;;-1.50;1.00;;;;;;5045566;28;20192;-54
2023/02/06 04:26:44;;;;;;;9.83;6.37;;;-1.50;1.00;;;;;;5043802;28;20613;-52
2023/02/06 04:29:11;;;;;;;12.70;8.30;;;-1.40;1.00;;;;;;5049000;28;20537;-53
2023/02/06 04:31:37;;;;;;;10.43;6.63;;;-1.40;1.00;;;;;;5041667;28;20189;-52
2023/02/06 04:34:03;;;;;;;11.00;6.73;;;-1.40;1.00;;;;;;5043382;28;20580;-53
2023/02/06 04:36:29;;;;;;;11.93;7.30;;;-1.40;1.00;;;;;;5041000;28;20542;-54
2023/02/06 04:38:54;;;;;;;9.50;6.67;;;-1.30;1.00;;;;;;5035756;28;20194;-51
2023/02/06 04:41:20;;;;;;;12.83;7.43;;;-1.30;1.00;;;;;;5037670;28;20724;-52
2023/02/06 04:43:45;;;;;;;11.63;7.03;;;-1.30;1.00;;;;;;5038231;28;20189;-54
2023/02/06 04:46:11;;;;;;;10.83;6.90;;;-1.40;1.00;;;;;;5040564;28;20630;-53
2023/02/06 04:48:37;;;;;;;11.60;7.30;;;-1.40;1.00;;;;;;5048692;28;20226;-55
2023/02/06 04:51:02;;;;;;;13.50;9.03;;;-1.40;1.00;;;;;;5047511;28;20186;-53
2023/02/06 04:53:28;;;;;;;12.97;7.70;;;-1.30;1.00;;;;;;5047370;28;20242;-54
2023/02/06 04:56:01;;;;;;;12.00;7.93;;;-1.20;1.00;;;;;;5049022;28;20451;-52
2023/02/06 04:58:27;;;;;;;12.43;8.60;;;-1.20;1.00;;;;;;5046275;28;20708;-53
2023/02/06 05:00:52;;;;;;;12.53;8.47;;;-1.10;1.00;;;;;;5041946;28;20449;-53
2023/02/06 05:03:18;;;;;;;12.70;7.67;;;-1.00;1.00;;;;;;5048984;28;20206;-55
2023/02/06 05:05:44;;;;;;;13.80;8.90;;;-1.00;1.00;;;;;;5046555;28;20705;-54
2023/02/06 05:08:10;;;;;;;14.00;8.70;;;-0.90;1.00;;;;;;5046275;28;20209;-53
2023/02/06 05:10:35;;;;;;;11.10;7.43;;;-0.90;1.00;;;;;;5051585;28;20439;-53
2023/02/06 05:13:01;;;;;;;13.23;7.83;;;-0.90;1.00;;;;;;5042493;28;20646;-52
2023/02/06 05:15:26;;;;;;;12.80;8.20;;;-0.80;1.00;;;;;;5046124;28;20241;-54
2023/02/06 05:17:53;;;;;;;13.77;8.17;;;-0.70;1.00;;;;;;5045951;28;20188;-55
2023/02/06 05:20:19;;;;;;;11.00;7.80;;;-0.70;1.00;;;;;;5048369;28;20526;-53
2023/02/06 05:22:44;;;;;;;12.50;8.20;;;-0.70;1.00;;;;;;5043467;28;20521;-53
2023/02/06 05:25:10;;;;;;;10.73;8.87;;;-0.70;1.00;;;;;;5046032;28;20212;-55
2023/02/06 05:27:35;;;;;;;11.77;8.30;;;-0.70;1.00;;;;;;5044526;28;20560;-55
2023/02/06 05:30:01;;;;;;;11.60;7.70;;;-0.70;1.00;;;;;;5038725;28;20196;-54
2023/02/06 05:32:27;;;;;;;14.33;8.43;;;-0.60;1.00;;;;;;5046538;28;20197;-54
2023/02/06 05:34:52;;;;;;;13.70;8.97;;;-0.60;1.00;;;;;;5045606;28;20642;-53
2023/02/06 05:37:18;;;;;;;12.57;8.23;;;-0.60;1.00;;;;;;5047014;28;20191;-53
2023/02/06 05:39:43;;;;;;;16.33;8.40;;;-0.80;1.00;;;;;;5047052;28;20246;-54
2023/02/06 05:42:09;;;;;;;14.03;9.57;;;-0.70;1.00;;;;;;5045715;28;20735;-54
2023/02/06 05:44:34;;;;;;;13.97;8.80;;;-0.60;1.00;;;;;;5054202;28;20290;-53
2023/02/06 05:47:00;;;;;;;11.93;7.87;;;-0.60;1.00;;;;;;5046567;28;20212;-54
2023/02/06 05:49:26;;;;;;;14.40;8.20;;;-0.50;1.00;;;;;;5045801;28;20205;-55
2023/02/06 05:51:51;;;;;;;10.90;7.70;;;-0.30;1.00;;;;;;5046666;28;20193;-54
2023/02/06 05:54:17;;;;;;;12.80;7.17;;;-0.30;1.00;;;;;;5052180;28;20219;-53
2023/02/06 05:56:43;;;;;;;15.67;7.90;;;-0.30;1.00;;;;;;5049910;28;21098;-55
2023/02/06 05:59:09;;;;;;;13.77;9.00;;;-0.40;1.00;;;;;;5047608;28;20710;-55
2023/02/06 06:01:34;;;;;;;15.40;6.90;;;-0.40;1.00;;;;;;5047000;28;20452;-55
2023/02/06 06:04:00;;;;;;;13.40;9.00;;;-0.40;1.00;;;;;;5047602;28;20216;-53
2023/02/06 06:06:25;;;;;;;13.77;8.43;;;-0.40;1.00;;;;;;5054692;28;20189;-53
2023/02/06 06:08:51;;;;;;;12.43;7.90;;;-0.40;1.00;;;;;;5054279;28;20174;-54
2023/02/06 06:11:17;;;;;;;13.40;8.93;;;-0.30;1.00;;;;;;5053746;28;20332;-53
2023/02/06 06:13:43;;;;;;;12.20;8.20;;;-0.30;1.00;;;;;;5047159;28;20539;-54
2023/02/06 06:16:08;;;;;;;11.43;8.60;;;-0.30;1.00;;;;;;5047177;28;20228;-53
2023/02/06 06:18:34;;;;;;;12.50;8.73;;;-0.20;1.00;;;;;;5046063;28;20213;-54
2023/02/06 06:20:59;;;;;;;17.03;9.63;;;-0.20;1.00;;;;;;5048501;28;20190;-55
2023/02/06 06:23:25;;;;;;;11.97;7.80;;;-0.20;1.00;;;;;;5043006;28;20221;-54
2023/02/06 06:25:51;;;;;;;13.80;9.27;;;-0.20;1.00;;;;;;5046610;28;20548;-54
2023/02/06 06:28:16;;;;;;;13.43;9.20;;;-0.20;1.00;;;;;;5058180;28;20730;-54
2023/02/06 06:30:42;;;;;;;12.23;9.17;;;-0.20;1.00;;;;;;5050703;28;20178;-55
2023/02/06 06:33:08;;;;;;;13.63;8.03;;;-0.20;1.00;;;;;;5056024;28;20273;-53
2023/02/06 06:35:33;;;;;;;14.80;8.93;;;-0.10;1.00;;;;;;5065427;28;20182;-54
2023/02/06 06:37:59;;;;;;;16.03;8.90;;;-0.10;1.00;;;;;;5047609;28;20249;-53
2023/02/06 06:40:25;;;;;;;12.97;8.60;;;-0.10;1.00;;;;;;5047420;28;20231;-53
2023/02/06 06:42:50;;;;;;;15.20;8.60;;;-0.10;1.00;;;;;;5047274;28;20304;-55
2023/02/06 06:45:16;;;;;;;10.53;8.80;;;-0.10;1.00;;;;;;5045503;28;20195;-52
2023/02/06 06:47:42;;;;;;;17.97;9.97;;;0.00;1.00;;;;;;5054626;28;20288;-53
2023/02/06 06:50:07;;;;;;;18.63;9.77;;;0.00;1.00;;;;;;5048284;28;20660;-54
2023/02/06 06:52:33;;;;;;;18.70;9.67;;;0.00;1.00;;;;;;5043746;28;20237;-54
2023/02/06 06:54:59;;;;;;;14.73;9.10;;;0.00;1.00;;;;;;5048893;28;20550;-54
2023/02/06 06:57:28;;;;;;;13.43;9.57;;;0.10;1.00;;;;;;5049947;28;20213;-55
2023/02/06 06:59:54;;;;;;;12.73;8.57;;;0.10;1.00;;;;;;5049127;28;20448;-54
2023/02/06 07:02:19;;;;;;;17.13;9.10;;;0.10;1.00;;;;;;5044256;28;21006;-55
2023/02/06 07:04:45;;;;;;;13.77;9.20;;;0.10;1.00;;;;;;5058955;28;20203;-54
2023/02/06 07:07:11;;;;;;;13.53;9.10;;;0.10;1.00;;;;;;5050977;28;20183;-54
2023/02/06 07:09:36;;;;;;;14.40;9.13;;;0.10;1.00;;;;;;5070979;28;20180;-54
2023/02/06 07:12:02;;;;;;;15.53;8.73;;;0.20;1.00;;;;;;5061203;28;20547;-55
2023/02/06 07:14:28;;;;;;;16.10;9.27;;;0.30;1.00;;;;;;5056633;28;20271;-55
2023/02/06 07:16:55;;;;;;;23.33;10.63;;;0.30;1.00;;;;;;5047599;28;20229;-54
2023/02/06 07:19:20;;;;;;;16.77;8.93;;;0.30;1.00;;;;;;5056616;28;20201;-53
2023/02/06 07:21:46;;;;;;;18.10;10.07;;;0.30;1.00;;;;;;5044479;28;20479;-55
2023/02/06 07:24:11;;;;;;;13.27;9.90;;;0.40;1.00;;;;;;5048903;28;20196;-55
2023/02/06 07:26:37;;;;;;;15.17;9.23;;;0.40;1.00;;;;;;5046109;28;20193;-55
2023/02/06 07:29:03;;;;;;;15.87;10.60;;;0.50;1.00;;;;;;5047612;28;20199;-54
2023/02/06 07:31:28;;;;;;;16.07;10.60;;;0.50;1.00;;;;;;5046259;28;20236;-53
2023/02/06 07:33:54;;;;;;;16.93;10.33;;;0.50;1.00;;;;;;5045382;28;20525;-54
2023/02/06 07:36:20;;;;;;;12.47;8.97;;;0.60;1.00;;;;;;5046947;28;20193;-53
2023/02/06 07:38:45;;;;;;;11.33;8.90;;;-0.70;1.00;;;;;;5044566;28;20643;-54
2023/02/06 07:41:11;;;;;;;16.50;10.50;;;0.70;1.00;;;;;;5046302;28;20197;-54
2023/02/06 07:43:37;;;;;;;15.97;10.47;;;0.70;1.00;;;;;;5043256;28;20596;-55
2023/02/06 07:46:04;;;;;;;13.50;9.27;;;0.80;1.00;;;;;;5052707;28;20191;-55
2023/02/06 07:48:30;;;;;;;14.57;9.47;;;0.80;1.00;;;;;;5050266;28;20488;-53
2023/02/06 07:50:56;;;;;;;16.80;10.53;;;0.90;1.00;;;;;;5048547;28;20459;-52
2023/02/06 07:53:22;;;;;;;15.47;10.33;;;1.00;1.00;;;;;;5050044;28;20301;-53
2023/02/06 07:55:47;;;;;;;14.63;9.60;;;1.10;1.00;;;;;;5068620;28;20440;-54
2023/02/06 07:58:13;;;;;;;11.37;9.50;;;1.10;1.00;;;;;;5044356;28;20479;-54
2023/02/06 08:00:39;;;;;;;14.63;10.13;;;1.20;1.00;;;;;;5047662;28;20191;-53
2023/02/06 08:03:06;;;;;;;14.07;9.70;;;1.20;1.00;;;;;;5046160;28;20226;-55
2023/02/06 08:05:32;;;;;;;13.03;11.63;;;1.30;1.00;;;;;;5050107;28;20468;-54
2023/02/06 08:07:58;;;;;;;16.00;10.57;;;1.30;1.00;;;;;;5040796;28;20804;-54
2023/02/06 08:10:23;;;;;;;16.20;10.50;;;1.30;1.00;;;;;;5042405;28;20449;-54
2023/02/06 08:12:49;;;;;;;17.17;10.77;;;1.40;1.00;;;;;;5044754;28;20457;-54
2023/02/06 08:15:16;;;;;;;14.27;9.97;;;1.40;1.00;;;;;;5061859;28;20217;-55
2023/02/06 08:17:41;;;;;;;15.17;11.20;;;1.50;1.00;;;;;;5050795;28;20196;-54
2023/02/06 08:20:09;;;;;;;14.67;10.13;;;1.50;1.00;;;;;;5049591;28;20470;-54
2023/02/06 08:22:35;;;;;;;14.80;10.73;;;1.50;1.00;;;;;;5055942;28;20442;-54
2023/02/06 08:25:00;;;;;;;13.77;9.87;;;1.60;1.00;;;;;;5052091;28;20429;-54
2023/02/06 08:27:26;;;;;;;18.13;10.47;;;1.60;1.00;;;;;;5047455;28;20178;-55
2023/02/06 08:29:52;;;;;;;14.07;10.50;;;1.80;1.00;;;;;;5051918;28;20210;-56
2023/02/06 08:32:18;;;;;;;16.57;10.27;;;1.60;1.00;;;;;;5049346;28;20206;-54
2023/02/06 08:34:43;;;;;;;18.53;11.07;;;1.60;1.00;;;;;;5060537;28;20443;-56
2023/02/06 08:37:09;;;;;;;15.87;10.77;;;1.60;1.00;;;;;;5042437;28;20200;-54
2023/02/06 08:39:36;;;;;;;14.87;10.57;;;1.60;1.00;;;;;;5051709;28;20281;-54
2023/02/06 08:42:02;;;;;;;16.67;11.00;;;1.70;1.00;;;;;;5046890;28;20468;-55
2023/02/06 08:44:28;;;;;;;17.27;11.20;;;1.70;1.00;;;;;;5053611;28;21067;-55
2023/02/06 08:46:54;;;;;;;14.03;10.37;;;1.70;1.00;;;;;;5051490;28;20312;-53
2023/02/06 08:49:21;;;;;;;17.30;10.97;;;1.70;1.00;;;;;;5048264;28;20531;-53
2023/02/06 08:51:50;;;;;;;16.10;10.40;;;1.90;1.00;;;;;;5048868;28;20277;-56
2023/02/06 08:54:18;;;;;;;12.47;9.67;;;1.90;1.00;;;;;;5048625;28;20485;-54
2023/02/06 08:56:44;;;;;;;16.47;10.90;;;2.00;1.00;;;;;;5046518;28;20465;-56
2023/02/06 08:59:12;;;;;;;16.53;10.83;;;2.10;1.00;;;;;;5048124;28;20490;-57
2023/02/06 09:01:38;;;;;;;18.07;12.37;;;2.10;1.00;;;;;;5046693;28;20509;-53
2023/02/06 09:04:07;;;;;;;18.37;13.60;;;2.20;1.00;;;;;;5046494;28;20454;-53
2023/02/06 09:06:37;;;;;;;18.67;12.33;;;2.30;1.00;;;;;;5046419;28;20449;-53
2023/02/06 09:09:04;;;;;;;17.10;10.97;;;2.30;1.00;;;;;;5048669;28;20792;-54
2023/02/06 09:11:30;;;;;;;19.13;11.53;;;2.40;1.00;;;;;;5047339;28;20450;-53
2023/02/06 09:13:58;;;;;;;14.47;11.30;;;2.40;1.00;;;;;;5046028;28;20713;-54
2023/02/06 09:16:25;;;;;;;18.77;11.73;;;2.50;1.00;;;;;;5047640;28;20430;-54
2023/02/06 09:18:55;;;;;;;18.83;12.00;;;2.50;1.00;;;;;;5047619;28;20448;-56
2023/02/06 09:21:23;;;;;;;15.30;11.60;;;2.50;1.00;;;;;;5044073;28;21059;-55
2023/02/06 09:23:51;;;;;;;20.07;11.80;;;2.50;1.00;;;;;;5046029;28;20602;-54
2023/02/06 09:26:21;;;;;;;16.23;11.70;;;2.50;1.00;;;;;;5042579;28;20449;-54
2023/02/06 09:28:51;;;;;;;17.47;11.30;;;2.40;1.00;;;;;;5046076;28;20476;-54
2023/02/06 09:31:17;;;;;;;14.23;10.70;;;2.40;1.00;;;;;;5047800;28;20825;-55
2023/02/06 09:33:43;;;;;;;15.40;10.90;;;2.50;1.00;;;;;;5061223;28;20439;-54
2023/02/06 09:36:11;;;;;;;18.93;11.70;;;2.40;1.00;;;;;;5046835;28;20194;-55
2023/02/06 09:38:41;;;;;;;18.83;11.87;;;2.30;1.00;;;;;;5054906;28;20222;-53
2023/02/06 09:41:24;;;;;;;16.60;12.17;;;2.30;1.00;;;;;;5051049;28;20457;-54
2023/02/06 09:43:53;;;;;;;21.20;12.80;;;2.40;1.00;;;;;;5051618;28;20943;-54
2023/02/06 09:46:25;;;;;;;15.40;11.87;;;2.50;1.00;;;;;;5050318;28;20452;-53
2023/02/06 09:48:52;;;;;;;15.50;12.03;;;2.50;1.00;;;;;;5052924;28;20453;-53
2023/02/06 09:51:48;;;;;;;17.67;12.60;;;2.60;1.00;;;;;;5047778;28;20464;-55
2023/02/06 09:54:22;;;;;;;16.07;13.10;;;2.60;1.00;;;;;;5050814;28;20482;-53
2023/02/06 09:57:06;;;;;;;15.93;12.60;;;2.70;1.00;;;;;;5048595;28;20445;-54
2023/02/06 09:59:42;;;;;;;18.87;11.43;;;2.60;1.00;;;;;;5048272;28;20483;-54
2023/02/06 10:02:41;;;;;;;17.87;12.60;;;2.50;1.00;;;;;;5045833;28;20876;-54
2023/02/06 10:05:27;;;;;;;19.33;12.77;;;2.50;1.00;;;;;;5039123;28;20798;-53
2023/02/06 10:08:22;;;;;;;21.67;12.57;;;2.60;1.00;;;;;;5048294;28;20922;-53
2023/02/06 10:11:02;;;;;;;20.87;16.47;;;2.80;1.00;;;;;;5039264;28;20477;-55
2023/02/06 10:13:30;;;;;;;19.57;14.00;;;3.00;1.00;;;;;;5045209;28;20444;-55
2023/02/06 10:16:19;;;;;;;19.57;15.07;;;3.10;1.00;;;;;;5046490;28;20450;-54
2023/02/06 10:18:51;;;;;;;18.27;14.33;;;3.10;1.00;;;;;;5047121;28;20441;-54
2023/02/06 10:21:47;;;;;;;15.70;11.47;;;3.20;1.00;;;;;;5044287;28;20440;-53
2023/02/06 10:24:33;;;;;;;18.13;12.50;;;3.40;1.00;;;;;;5053766;28;20448;-54
2023/02/06 10:27:03;;;;;;;19.40;12.40;;;3.60;1.00;;;;;;5060297;28;20975;-55
2023/02/06 10:29:32;;;;;;;18.23;11.80;;;3.60;1.00;;;;;;5071868;28;20462;-54
2023/02/06 10:32:37;;;;;;;18.50;13.53;;;3.70;1.00;;;;;;5071591;28;20428;-53
2023/02/06 10:35:18;;;;;;;17.03;13.27;;;3.80;1.00;;;;;;5059068;28;20451;-54
2023/02/06 10:38:03;;;;;;;16.27;12.13;;;3.70;1.00;;;;;;5051233;28;20432;-54
2023/02/06 10:40:56;;;;;;;17.87;13.00;;;3.70;1.00;;;;;;5062046;28;20504;-55
2023/02/06 10:43:33;;;;;;;15.23;12.37;;;3.70;1.00;;;;;;5071531;28;20461;-54
2023/02/06 10:46:08;;;;;;;17.87;12.53;;;3.60;1.00;;;;;;5071608;28;20448;-56
2023/02/06 10:48:40;;;;;;;17.40;13.20;;;3.40;1.00;;;;;;5052955;28;20498;-56
2023/02/06 10:51:18;;;;;;;17.13;14.13;;;3.40;1.00;;;;;;5061563;28;20461;-53
2023/02/06 10:54:01;;;;;;;16.83;12.33;;;3.40;1.00;;;;;;5071051;28;20879;-53
2023/02/06 10:56:32;;;;;;;16.83;13.27;;;3.30;1.00;;;;;;5063532;28;20457;-54
2023/02/06 10:59:09;;;;;;;18.17;14.23;;;3.20;1.00;;;;;;5049811;28;20573;-54
2023/02/06 11:01:38;;;;;;;20.90;12.67;;;2.80;1.00;;;;;;5051536;28;20881;-55
2023/02/06 11:04:18;;;;;;;18.73;13.90;;;3.00;1.00;;;;;;5051042;28;20532;-53
2023/02/06 11:06:45;;;;;;;18.17;13.70;;;3.00;1.00;;;;;;5045016;28;20446;-53
2023/02/06 11:09:12;;;;;;;19.93;14.73;;;3.10;1.00;;;;;;5059680;28;20436;-54
2023/02/06 11:11:46;;;;;;;22.07;14.30;;;3.20;1.00;;;;;;5060618;28;20523;-54
2023/02/06 11:14:31;;;;;;;27.10;16.17;;;3.30;1.00;;;;;;5049895;28;20424;-53
2023/02/06 11:16:59;;;;;;;28.30;16.67;;;3.40;1.00;;;;;;5051308;28;20525;-54
2023/02/06 11:19:43;;;;;;;21.57;16.67;;;3.50;1.00;;;;;;5050558;28;20772;-54
2023/02/06 11:22:27;;;;;;;25.07;16.57;;;3.60;1.00;;;;;;5056058;28;20505;-55
2023/02/06 11:25:06;;;;;;;25.40;16.87;;;3.80;1.00;;;;;;5070807;28;20519;-54
2023/02/06 11:27:34;;;;;;;24.50;17.37;;;4.00;1.00;;;;;;5070338;28;20990;-54
2023/02/06 11:30:17;;;;;;;31.00;23.03;;;4.00;1.00;;;;;;5050715;28;20519;-54
2023/02/06 11:32:43;;;;;;;20.30;16.10;;;4.20;1.00;;;;;;5049506;28;20945;-55
2023/02/06 11:35:33;;;;;;;23.67;17.30;;;4.10;1.00;;;;;;5049263;28;20477;-53
2023/02/06 11:38:15;;;;;;;22.80;16.63;;;4.30;1.00;;;;;;5043940;28;20290;-54
2023/02/06 11:40:42;;;;;;;21.90;17.40;;;4.40;1.00;;;;;;5067822;28;20449;-53
2023/02/06 11:43:20;;;;;;;21.30;17.00;;;4.40;1.00;;;;;;5070489;28;20464;-54
2023/02/06 11:45:48;;;;;;;21.00;17.23;;;4.50;1.00;;;;;;5060225;28;20519;-54
2023/02/06 11:48:40;;;;;;;20.03;17.50;;;4.50;1.00;;;;;;5070475;28;20433;-53
2023/02/06 11:51:07;;;;;;;21.40;16.90;;;4.60;1.00;;;;;;5056164;28;20450;-54
2023/02/06 11:53:33;;;;;;;20.10;16.30;;;4.50;1.00;;;;;;5050128;28;20510;-53
2023/02/06 11:56:03;;;;;;;23.23;17.77;;;4.70;1.00;;;;;;5050309;28;20434;-54
2023/02/06 11:58:29;;;;;;;23.67;17.47;;;4.80;1.00;;;;;;5050570;28;20448;-54
2023/02/06 12:00:59;;;;;;;18.90;16.17;;;4.90;1.00;;;;;;5050565;28;20450;-55
2023/02/06 12:03:46;;;;;;;21.07;17.10;;;5.10;1.00;;;;;;5049975;28;20468;-53
2023/02/06 12:06:26;;;;;;;24.40;18.30;;;5.20;1.00;;;;;;5045049;28;20525;-54
2023/02/06 12:08:55;;;;;;;21.07;16.60;;;5.10;1.00;;;;;;5050171;28;20464;-54
2023/02/06 12:11:34;;;;;;;23.60;18.33;;;4.90;1.00;;;;;;5050260;28;20425;-55
2023/02/06 12:14:09;;;;;;;24.60;17.50;;;4.50;1.00;;;;;;5057288;28;20452;-53
2023/02/06 12:16:38;;;;;;;23.10;19.20;;;4.70;1.00;;;;;;5053440;28;20452;-55
2023/02/06 12:19:10;;;;;;;21.40;16.27;;;4.80;1.00;;;;;;5069929;28;20444;-54
2023/02/06 12:21:48;;;;;;;21.63;17.73;;;4.80;1.00;;;;;;5053608;28;20450;-54
2023/02/06 12:24:37;;;;;;;20.10;17.33;;;4.90;1.00;;;;;;5054795;28;20566;-54
2023/02/06 12:27:13;;;;;;;20.60;16.10;;;5.10;1.00;;;;;;5052109;28;20417;-54
2023/02/06 12:30:03;;;;;;;20.80;16.47;;;5.10;1.00;;;;;;5061084;28;20444;-55
2023/02/06 12:32:35;;;;;;;21.93;17.20;;;5.20;1.00;;;;;;5070128;28;20923;-53
2023/02/06 12:35:20;;;;;;;21.93;17.07;;;5.30;1.00;;;;;;5069077;28;20416;-54
2023/02/06 12:37:54;;;;;;;20.47;16.60;;;5.30;1.00;;;;;;5046052;28;20454;-53
2023/02/06 12:40:44;;;;;;;22.07;16.50;;;5.80;1.00;;;;;;5049439;28;20437;-53
2023/02/06 12:43:13;;;;;;;25.00;17.13;;;5.40;1.00;;;;;;5067640;28;20798;-54
2023/02/06 12:46:12;;;;;;;21.70;15.73;;;5.50;1.00;;;;;;5049546;28;20449;-55
2023/02/06 12:48:51;;;;;;;19.90;16.03;;;5.50;1.00;;;;;;5026368;28;20845;-52
2023/02/06 12:52:17;;;;;;;16.27;13.53;;;5.40;1.00;;;;;;5053838;28;20448;-55
2023/02/06 12:55:06;;;;;;;17.57;13.70;;;5.40;1.00;;;;;;5061139;28;20461;-53
2023/02/06 12:57:33;;;;;;;15.20;13.40;;;5.40;1.00;;;;;;5052792;28;20963;-53
2023/02/06 13:00:27;;;;;;;19.70;15.53;;;5.30;1.00;;;;;;5052919;28;20441;-53
2023/02/06 13:03:13;;;;;;;19.60;16.23;;;5.30;1.00;;;;;;5068906;28;20558;-54
2023/02/06 13:05:45;;;;;;;20.97;15.67;;;5.30;1.00;;;;;;5061015;28;20432;-55
2023/02/06 13:08:14;;;;;;;20.93;16.03;;;5.20;1.00;;;;;;5061879;28;20451;-55